sensor_id;sensor_type;location;lat;lon;timestamp;pressure;altitude;pressure_sealevel;temperature;humidity
59063;BME280;44851;45.648;9.004;2023-03-25T00:01:01;98668.13;;;13.46;61.10
59063;BME280;44851;45.648;9.004;2023-03-25T00:03:31;98666.81;;;13.51;61.57
59063;BME280;44851;45.648;9.004;2023-03-25T00:06:04;98657.66;;;13.46;62.10
59063;BME280;44851;45.648;9.004;2023-03-25T00:08:31;98653.41;;;13.54;62.33
59063;BME280;44851;45.648;9.004;2023-03-25T00:10:58;98656.19;;;13.52;61.78
59063;BME280;44851;45.648;9.004;2023-03-25T00:13:25;98650.13;;;13.52;62.19
59063;BME280;44851;45.648;9.004;2023-03-25T00:15:51;98646.88;;;13.50;61.95
59063;BME280;44851;45.648;9.004;2023-03-25T00:18:24;98652.75;;;13.60;62.60
59063;BME280;44851;45.648;9.004;2023-03-25T00:20:51;98644.72;;;13.61;63.13
59063;BME280;44851;45.648;9.004;2023-03-25T00:23:18;98643.91;;;13.61;61.77
59063;BME280;44851;45.648;9.004;2023-03-25T00:25:45;98644.88;;;13.52;62.20
59063;BME280;44851;45.648;9.004;2023-03-25T00:28:11;98641.00;;;13.39;61.74
59063;BME280;44851;45.648;9.004;2023-03-25T00:30:37;98638.56;;;13.38;62.28
59063;BME280;44851;45.648;9.004;2023-03-25T00:33:03;98634.78;;;13.32;63.08
59063;BME280;44851;45.648;9.004;2023-03-25T00:35:28;98629.22;;;13.35;62.68
59063;BME280;44851;45.648;9.004;2023-03-25T00:37:54;98631.34;;;13.40;63.40
59063;BME280;44851;45.648;9.004;2023-03-25T00:40:28;98627.41;;;13.36;62.73
59063;BME280;44851;45.648;9.004;2023-03-25T00:42:55;98629.06;;;13.29;62.57
59063;BME280;44851;45.648;9.004;2023-03-25T00:45:21;98621.53;;;13.34;62.86
59063;BME280;44851;45.648;9.004;2023-03-25T00:47:47;98616.63;;;13.31;62.34
59063;BME280;44851;45.648;9.004;2023-03-25T00:50:12;98615.16;;;13.28;62.43
59063;BME280;44851;45.648;9.004;2023-03-25T00:52:38;98624.66;;;13.29;62.61
59063;BME280;44851;45.648;9.004;2023-03-25T00:55:07;98625.59;;;13.36;62.54
59063;BME280;44851;45.648;9.004;2023-03-25T00:57:32;98623.00;;;13.36;62.59
59063;BME280;44851;45.648;9.004;2023-03-25T00:59:58;98623.03;;;13.28;62.36
59063;BME280;44851;45.648;9.004;2023-03-25T01:02:24;98608.31;;;13.27;62.15
59063;BME280;44851;45.648;9.004;2023-03-25T01:04:49;98608.28;;;13.35;63.08
59063;BME280;44851;45.648;9.004;2023-03-25T01:07:18;98606.97;;;13.31;62.64
59063;BME280;44851;45.648;9.004;2023-03-25T01:09:45;98603.38;;;13.32;62.72
59063;BME280;44851;45.648;9.004;2023-03-25T01:12:13;98598.28;;;13.39;63.39
59063;BME280;44851;45.648;9.004;2023-03-25T01:14:39;98595.22;;;13.27;62.63
59063;BME280;44851;45.648;9.004;2023-03-25T01:17:04;98591.59;;;13.28;62.93
59063;BME280;44851;45.648;9.004;2023-03-25T01:19:30;98585.38;;;13.21;62.80
59063;BME280;44851;45.648;9.004;2023-03-25T01:21:56;98582.94;;;13.19;62.59
59063;BME280;44851;45.648;9.004;2023-03-25T01:24:21;98577.56;;;13.13;62.78
59063;BME280;44851;45.648;9.004;2023-03-25T01:26:47;98577.25;;;13.16;63.18
59063;BME280;44851;45.648;9.004;2023-03-25T01:29:14;98576.56;;;13.22;63.14
59063;BME280;44851;45.648;9.004;2023-03-25T01:31:41;98576.91;;;13.19;63.29
59063;BME280;44851;45.648;9.004;2023-03-25T01:34:06;98568.72;;;13.14;63.29
59063;BME280;44851;45.648;9.004;2023-03-25T01:36:33;98562.81;;;13.12;63.20
59063;BME280;44851;45.648;9.004;2023-03-25T01:39:01;98565.63;;;13.27;63.83
59063;BME280;44851;45.648;9.004;2023-03-25T01:41:27;98568.38;;;13.25;63.82
59063;BME280;44851;45.648;9.004;2023-03-25T01:46:39;98557.94;;;13.17;63.74
59063;BME280;44851;45.648;9.004;2023-03-25T01:49:11;98561.34;;;13.26;63.94
59063;BME280;44851;45.648;9.004;2023-03-25T01:51:42;98556.59;;;13.29;63.71
59063;BME280;44851;45.648;9.004;2023-03-25T01:54:10;98561.84;;;13.29;63.45
59063;BME280;44851;45.648;9.004;2023-03-25T01:56:39;98559.84;;;13.31;63.82
59063;BME280;44851;45.648;9.004;2023-03-25T01:59:07;98558.56;;;13.27;63.53
59063;BME280;44851;45.648;9.004;2023-03-25T02:01:35;98556.44;;;13.23;63.64
59063;BME280;44851;45.648;9.004;2023-03-25T02:04:02;98552.66;;;13.25;64.33
59063;BME280;44851;45.648;9.004;2023-03-25T02:06:55;98546.66;;;13.16;62.32
59063;BME280;44851;45.648;9.004;2023-03-25T02:09:24;98555.63;;;13.22;63.38
59063;BME280;44851;45.648;9.004;2023-03-25T02:11:50;98547.47;;;13.17;63.13
59063;BME280;44851;45.648;9.004;2023-03-25T02:14:22;98539.94;;;13.22;62.98
59063;BME280;44851;45.648;9.004;2023-03-25T02:23:07;98537.47;;;13.12;63.08
59063;BME280;44851;45.648;9.004;2023-03-25T02:28:59;98543.19;;;13.08;63.57
59063;BME280;44851;45.648;9.004;2023-03-25T02:31:53;98542.38;;;13.07;62.89
59063;BME280;44851;45.648;9.004;2023-03-25T02:39:56;98543.19;;;13.08;63.17
59063;BME280;44851;45.648;9.004;2023-03-25T02:42:33;98547.63;;;12.99;64.11
59063;BME280;44851;45.648;9.004;2023-03-25T02:45:30;98562.53;;;12.90;63.52
59063;BME280;44851;45.648;9.004;2023-03-25T02:48:00;98564.78;;;13.02;64.24
59063;BME280;44851;45.648;9.004;2023-03-25T02:50:34;98560.88;;;13.06;64.22
59063;BME280;44851;45.648;9.004;2023-03-25T02:53:04;98554.19;;;12.95;63.93
59063;BME280;44851;45.648;9.004;2023-03-25T02:55:33;98557.59;;;13.04;64.03
59063;BME280;44851;45.648;9.004;2023-03-25T02:58:01;98550.41;;;13.06;64.36
59063;BME280;44851;45.648;9.004;2023-03-25T03:00:29;98553.97;;;13.05;64.43
59063;BME280;44851;45.648;9.004;2023-03-25T03:03:03;98543.19;;;13.08;64.07
59063;BME280;44851;45.648;9.004;2023-03-25T03:05:43;98547.16;;;12.95;63.45
59063;BME280;44851;45.648;9.004;2023-03-25T03:14:29;98544.38;;;12.81;63.08
59063;BME280;44851;45.648;9.004;2023-03-25T03:25:11;98530.81;;;12.69;65.36
59063;BME280;44851;45.648;9.004;2023-03-25T03:30:12;98541.94;;;12.71;64.55
59063;BME280;44851;45.648;9.004;2023-03-25T03:32:47;98537.00;;;12.52;64.53
59063;BME280;44851;45.648;9.004;2023-03-25T03:35:19;98537.19;;;12.42;64.87
59063;BME280;44851;45.648;9.004;2023-03-25T03:37:51;98540.13;;;12.39;64.69
59063;BME280;44851;45.648;9.004;2023-03-25T03:40:21;98537.69;;;12.37;64.42
59063;BME280;44851;45.648;9.004;2023-03-25T03:42:52;98534.41;;;12.27;64.63
59063;BME280;44851;45.648;9.004;2023-03-25T03:48:01;98548.44;;;12.26;64.70
59063;BME280;44851;45.648;9.004;2023-03-25T03:50:36;98544.50;;;12.14;65.34
59063;BME280;44851;45.648;9.004;2023-03-25T03:55:42;98550.06;;;12.11;64.89
59063;BME280;44851;45.648;9.004;2023-03-25T03:58:15;98549.06;;;12.12;65.45
59063;BME280;44851;45.648;9.004;2023-03-25T04:01:02;98553.66;;;12.10;66.09
59063;BME280;44851;45.648;9.004;2023-03-25T04:06:29;98551.63;;;11.96;63.85
59063;BME280;44851;45.648;9.004;2023-03-25T04:12:07;98552.84;;;11.67;65.99
59063;BME280;44851;45.648;9.004;2023-03-25T04:14:38;98552.00;;;11.66;65.71
59063;BME280;44851;45.648;9.004;2023-03-25T04:17:05;98551.38;;;11.73;65.56
59063;BME280;44851;45.648;9.004;2023-03-25T04:19:30;98562.09;;;11.61;66.54
59063;BME280;44851;45.648;9.004;2023-03-25T04:21:58;98564.22;;;11.58;65.86
59063;BME280;44851;45.648;9.004;2023-03-25T04:24:24;98562.16;;;11.44;65.47
59063;BME280;44851;45.648;9.004;2023-03-25T04:26:50;98557.31;;;11.49;66.30
59063;BME280;44851;45.648;9.004;2023-03-25T04:29:17;98550.81;;;11.53;65.62
59063;BME280;44851;45.648;9.004;2023-03-25T04:31:43;98555.56;;;11.57;64.85
59063;BME280;44851;45.648;9.004;2023-03-25T04:34:14;98555.69;;;11.48;65.26
59063;BME280;44851;45.648;9.004;2023-03-25T04:36:39;98561.88;;;11.47;65.33
59063;BME280;44851;45.648;9.004;2023-03-25T04:39:08;98567.13;;;11.55;64.85
59063;BME280;44851;45.648;9.004;2023-03-25T04:41:36;98562.94;;;11.62;65.08
59063;BME280;44851;45.648;9.004;2023-03-25T04:44:01;98564.16;;;11.50;65.21
59063;BME280;44851;45.648;9.004;2023-03-25T04:46:27;98562.34;;;11.50;65.15
59063;BME280;44851;45.648;9.004;2023-03-25T04:48:52;98578.16;;;11.41;64.86
59063;BME280;44851;45.648;9.004;2023-03-25T04:51:18;98576.09;;;11.26;64.75
59063;BME280;44851;45.648;9.004;2023-03-25T04:53:44;98577.34;;;11.14;64.43
59063;BME280;44851;45.648;9.004;2023-03-25T04:56:15;98560.28;;;11.02;64.64
59063;BME280;44851;45.648;9.004;2023-03-25T04:58:42;98562.59;;;11.05;64.46
59063;BME280;44851;45.648;9.004;2023-03-25T05:01:19;98558.09;;;11.15;63.90
59063;BME280;44851;45.648;9.004;2023-03-25T05:03:46;98558.31;;;11.22;64.10
59063;BME280;44851;45.648;9.004;2023-03-25T05:06:17;98557.78;;;11.18;64.34
59063;BME280;44851;45.648;9.004;2023-03-25T05:08:42;98562.28;;;11.08;64.10
59063;BME280;44851;45.648;9.004;2023-03-25T05:11:08;98561.59;;;10.98;63.57
59063;BME280;44851;45.648;9.004;2023-03-25T05:13:33;98553.94;;;10.78;64.40
59063;BME280;44851;45.648;9.004;2023-03-25T05:15:59;98561.88;;;10.59;65.42
59063;BME280;44851;45.648;9.004;2023-03-25T05:18:25;98565.19;;;10.61;65.77
59063;BME280;44851;45.648;9.004;2023-03-25T05:20:50;98557.91;;;10.82;65.97
59063;BME280;44851;45.648;9.004;2023-03-25T05:23:18;98565.97;;;10.71;64.61
59063;BME280;44851;45.648;9.004;2023-03-25T05:25:48;98570.59;;;10.85;65.64
59063;BME280;44851;45.648;9.004;2023-03-25T05:28:15;98564.28;;;10.88;65.53
59063;BME280;44851;45.648;9.004;2023-03-25T05:30:44;98566.38;;;10.84;65.02
59063;BME280;44851;45.648;9.004;2023-03-25T05:33:12;98558.56;;;10.67;66.06
59063;BME280;44851;45.648;9.004;2023-03-25T05:35:40;98560.78;;;10.61;65.93
59063;BME280;44851;45.648;9.004;2023-03-25T05:38:07;98563.53;;;10.60;66.53
59063;BME280;44851;45.648;9.004;2023-03-25T05:40:33;98564.66;;;10.57;65.46
59063;BME280;44851;45.648;9.004;2023-03-25T05:42:59;98571.28;;;10.52;66.38
59063;BME280;44851;45.648;9.004;2023-03-25T05:45:24;98567.09;;;10.59;66.13
59063;BME280;44851;45.648;9.004;2023-03-25T05:47:50;98568.44;;;10.63;66.14
59063;BME280;44851;45.648;9.004;2023-03-25T05:50:16;98564.16;;;10.72;65.85
59063;BME280;44851;45.648;9.004;2023-03-25T05:52:45;98568.97;;;10.67;65.84
59063;BME280;44851;45.648;9.004;2023-03-25T05:55:16;98577.69;;;10.75;66.12
59063;BME280;44851;45.648;9.004;2023-03-25T05:57:42;98570.09;;;10.64;65.77
59063;BME280;44851;45.648;9.004;2023-03-25T06:00:09;98584.47;;;10.68;65.57
59063;BME280;44851;45.648;9.004;2023-03-25T06:02:38;98581.44;;;10.73;64.98
59063;BME280;44851;45.648;9.004;2023-03-25T06:05:10;98577.44;;;10.86;65.20
59063;BME280;44851;45.648;9.004;2023-03-25T06:07:39;98579.47;;;10.93;65.12
59063;BME280;44851;45.648;9.004;2023-03-25T06:10:10;98594.16;;;10.94;64.13
59063;BME280;44851;45.648;9.004;2023-03-25T06:12:36;98604.13;;;10.98;63.36
59063;BME280;44851;45.648;9.004;2023-03-25T06:15:08;98611.78;;;11.00;63.02
59063;BME280;44851;45.648;9.004;2023-03-25T06:17:34;98611.19;;;11.06;63.10
59063;BME280;44851;45.648;9.004;2023-03-25T06:20:07;98608.28;;;11.09;63.38
59063;BME280;44851;45.648;9.004;2023-03-25T06:22:40;98602.63;;;11.13;64.09
59063;BME280;44851;45.648;9.004;2023-03-25T06:25:08;98600.09;;;11.30;63.80
59063;BME280;44851;45.648;9.004;2023-03-25T06:27:35;98607.81;;;11.39;63.26
59063;BME280;44851;45.648;9.004;2023-03-25T06:30:09;98605.78;;;11.51;63.85
59063;BME280;44851;45.648;9.004;2023-03-25T06:32:35;98601.75;;;11.65;64.18
59063;BME280;44851;45.648;9.004;2023-03-25T06:35:02;98594.63;;;11.75;63.28
59063;BME280;44851;45.648;9.004;2023-03-25T06:37:28;98598.94;;;11.92;63.54
59063;BME280;44851;45.648;9.004;2023-03-25T06:39:54;98605.13;;;11.83;63.31
59063;BME280;44851;45.648;9.004;2023-03-25T06:42:23;98603.50;;;11.90;63.66
59063;BME280;44851;45.648;9.004;2023-03-25T06:44:49;98593.41;;;11.96;63.56
59063;BME280;44851;45.648;9.004;2023-03-25T06:47:15;98592.34;;;12.14;62.77
59063;BME280;44851;45.648;9.004;2023-03-25T06:49:40;98594.81;;;12.24;63.80
59063;BME280;44851;45.648;9.004;2023-03-25T06:52:06;98596.13;;;12.20;63.74
59063;BME280;44851;45.648;9.004;2023-03-25T06:54:31;98602.84;;;12.31;63.64
59063;BME280;44851;45.648;9.004;2023-03-25T06:56:57;98600.72;;;12.34;64.10
59063;BME280;44851;45.648;9.004;2023-03-25T06:59:22;98599.59;;;12.45;63.12
59063;BME280;44851;45.648;9.004;2023-03-25T07:01:48;98602.06;;;12.55;64.29
59063;BME280;44851;45.648;9.004;2023-03-25T07:04:13;98605.50;;;12.72;62.69
59063;BME280;44851;45.648;9.004;2023-03-25T07:06:39;98613.53;;;12.86;63.05
59063;BME280;44851;45.648;9.004;2023-03-25T07:09:05;98607.81;;;13.24;63.09
59063;BME280;44851;45.648;9.004;2023-03-25T07:11:32;98612.84;;;13.41;62.66
59063;BME280;44851;45.648;9.004;2023-03-25T07:13:58;98621.63;;;13.65;62.14
59063;BME280;44851;45.648;9.004;2023-03-25T07:16:25;98620.84;;;13.95;60.93
59063;BME280;44851;45.648;9.004;2023-03-25T07:18:51;98630.94;;;14.23;60.39
59063;BME280;44851;45.648;9.004;2023-03-25T07:21:17;98633.81;;;14.59;59.49
59063;BME280;44851;45.648;9.004;2023-03-25T07:23:43;98634.47;;;14.84;59.26
59063;BME280;44851;45.648;9.004;2023-03-25T07:26:09;98638.72;;;15.08;59.99
59063;BME280;44851;45.648;9.004;2023-03-25T07:28:35;98636.09;;;15.46;59.35
59063;BME280;44851;45.648;9.004;2023-03-25T07:31:08;98633.13;;;15.64;57.21
59063;BME280;44851;45.648;9.004;2023-03-25T07:33:34;98625.31;;;15.70;57.80
59063;BME280;44851;45.648;9.004;2023-03-25T07:35:59;98629.47;;;16.09;56.68
59063;BME280;44851;45.648;9.004;2023-03-25T07:38:25;98638.91;;;16.18;56.26
59063;BME280;44851;45.648;9.004;2023-03-25T07:40:50;98640.34;;;16.06;55.03
59063;BME280;44851;45.648;9.004;2023-03-25T07:43:16;98635.63;;;16.31;55.55
59063;BME280;44851;45.648;9.004;2023-03-25T07:45:41;98648.50;;;16.62;55.13
59063;BME280;44851;45.648;9.004;2023-03-25T07:48:07;98646.88;;;16.61;55.36
59063;BME280;44851;45.648;9.004;2023-03-25T07:50:39;98640.13;;;16.73;55.55
59063;BME280;44851;45.648;9.004;2023-03-25T07:53:05;98643.81;;;16.79;54.79
59063;BME280;44851;45.648;9.004;2023-03-25T07:55:31;98652.13;;;17.04;54.15
59063;BME280;44851;45.648;9.004;2023-03-25T07:57:57;98643.06;;;17.06;53.59
59063;BME280;44851;45.648;9.004;2023-03-25T08:00:25;98648.03;;;17.44;55.77
59063;BME280;44851;45.648;9.004;2023-03-25T08:02:51;98655.53;;;17.47;52.34
59063;BME280;44851;45.648;9.004;2023-03-25T08:05:17;98658.41;;;17.52;53.61
59063;BME280;44851;45.648;9.004;2023-03-25T08:07:49;98653.50;;;17.77;55.10
59063;BME280;44851;45.648;9.004;2023-03-25T08:10:16;98657.94;;;17.70;53.90
59063;BME280;44851;45.648;9.004;2023-03-25T08:12:42;98658.53;;;18.00;54.76
59063;BME280;44851;45.648;9.004;2023-03-25T08:15:09;98658.22;;;17.88;50.50
59063;BME280;44851;45.648;9.004;2023-03-25T08:17:36;98662.50;;;17.89;51.44
59063;BME280;44851;45.648;9.004;2023-03-25T08:20:02;98662.34;;;18.39;52.11
59063;BME280;44851;45.648;9.004;2023-03-25T08:22:29;98665.88;;;18.59;50.69
59063;BME280;44851;45.648;9.004;2023-03-25T08:24:54;98671.28;;;18.38;50.89
59063;BME280;44851;45.648;9.004;2023-03-25T08:27:20;98664.41;;;18.50;51.57
59063;BME280;44851;45.648;9.004;2023-03-25T08:29:45;98660.50;;;18.33;50.62
59063;BME280;44851;45.648;9.004;2023-03-25T08:32:21;98666.91;;;18.72;51.81
59063;BME280;44851;45.648;9.004;2023-03-25T08:34:47;98658.63;;;18.88;50.49
59063;BME280;44851;45.648;9.004;2023-03-25T08:37:12;98655.22;;;19.20;51.40
59063;BME280;44851;45.648;9.004;2023-03-25T08:39:39;98652.75;;;19.45;49.36
59063;BME280;44851;45.648;9.004;2023-03-25T08:42:11;98644.84;;;19.45;48.45
59063;BME280;44851;45.648;9.004;2023-03-25T08:44:37;98646.47;;;19.66;48.65
59063;BME280;44851;45.648;9.004;2023-03-25T08:47:03;98649.72;;;19.62;47.30
59063;BME280;44851;45.648;9.004;2023-03-25T08:49:29;98640.00;;;20.07;48.32
59063;BME280;44851;45.648;9.004;2023-03-25T08:51:55;98637.81;;;20.04;45.82
59063;BME280;44851;45.648;9.004;2023-03-25T08:54:26;98645.81;;;20.36;46.16
59063;BME280;44851;45.648;9.004;2023-03-25T08:56:52;98645.97;;;20.47;43.58
59063;BME280;44851;45.648;9.004;2023-03-25T08:59:18;98639.44;;;20.50;42.37
59063;BME280;44851;45.648;9.004;2023-03-25T09:01:43;98644.28;;;20.15;40.10
59063;BME280;44851;45.648;9.004;2023-03-25T09:04:10;98635.88;;;20.24;39.78
59063;BME280;44851;45.648;9.004;2023-03-25T09:06:35;98633.56;;;20.48;40.86
59063;BME280;44851;45.648;9.004;2023-03-25T09:09:02;98621.75;;;20.75;42.08
59063;BME280;44851;45.648;9.004;2023-03-25T09:11:33;98615.78;;;20.87;39.33
59063;BME280;44851;45.648;9.004;2023-03-25T09:13:59;98621.56;;;21.02;42.65
59063;BME280;44851;45.648;9.004;2023-03-25T09:16:28;98626.69;;;21.28;40.35
59063;BME280;44851;45.648;9.004;2023-03-25T09:18:54;98613.91;;;21.44;40.08
59063;BME280;44851;45.648;9.004;2023-03-25T09:21:19;98619.22;;;21.62;40.52
59063;BME280;44851;45.648;9.004;2023-03-25T09:23:45;98616.69;;;21.49;39.08
59063;BME280;44851;45.648;9.004;2023-03-25T09:26:10;98621.06;;;21.18;37.54
59063;BME280;44851;45.648;9.004;2023-03-25T09:28:36;98608.13;;;21.47;37.24
59063;BME280;44851;45.648;9.004;2023-03-25T09:31:01;98603.72;;;21.41;35.35
59063;BME280;44851;45.648;9.004;2023-03-25T09:33:27;98610.09;;;21.58;36.16
59063;BME280;44851;45.648;9.004;2023-03-25T09:35:53;98607.28;;;21.53;38.50
59063;BME280;44851;45.648;9.004;2023-03-25T09:38:19;98599.84;;;21.18;34.44
59063;BME280;44851;45.648;9.004;2023-03-25T09:40:44;98605.78;;;21.20;34.57
59063;BME280;44851;45.648;9.004;2023-03-25T09:45:49;98605.81;;;21.75;37.59
59063;BME280;44851;45.648;9.004;2023-03-25T09:50:52;98609.94;;;22.08;35.76
59063;BME280;44851;45.648;9.004;2023-03-25T09:55:50;98613.34;;;22.45;36.48
59063;BME280;44851;45.648;9.004;2023-03-25T10:00:59;98607.16;;;22.63;33.32
59063;BME280;44851;45.648;9.004;2023-03-25T10:06:26;98598.66;;;22.84;32.87
59063;BME280;44851;45.648;9.004;2023-03-25T10:09:02;98606.44;;;23.09;33.60
59063;BME280;44851;45.648;9.004;2023-03-25T10:12:11;98608.03;;;22.75;31.46
59063;BME280;44851;45.648;9.004;2023-03-25T10:14:58;98616.13;;;22.80;29.60
59063;BME280;44851;45.648;9.004;2023-03-25T10:17:40;98602.63;;;22.94;27.69
59063;BME280;44851;45.648;9.004;2023-03-25T10:23:00;98599.88;;;23.12;30.15
59063;BME280;44851;45.648;9.004;2023-03-25T10:25:31;98594.56;;;23.24;31.15
59063;BME280;44851;45.648;9.004;2023-03-25T10:27:59;98590.63;;;23.15;30.47
59063;BME280;44851;45.648;9.004;2023-03-25T10:30:38;98594.59;;;23.35;29.69
59063;BME280;44851;45.648;9.004;2023-03-25T10:33:40;98590.97;;;23.18;29.65
59063;BME280;44851;45.648;9.004;2023-03-25T10:36:14;98575.28;;;22.63;28.80
59063;BME280;44851;45.648;9.004;2023-03-25T10:38:45;98591.63;;;22.78;30.66
59063;BME280;44851;45.648;9.004;2023-03-25T10:41:38;98581.16;;;23.30;31.38
59063;BME280;44851;45.648;9.004;2023-03-25T10:44:10;98576.41;;;23.56;27.82
59063;BME280;44851;45.648;9.004;2023-03-25T10:49:20;98578.59;;;23.59;24.05
59063;BME280;44851;45.648;9.004;2023-03-25T10:51:50;98575.78;;;23.77;24.39
59063;BME280;44851;45.648;9.004;2023-03-25T10:54:20;98565.56;;;23.98;21.52
59063;BME280;44851;45.648;9.004;2023-03-25T10:56:49;98577.59;;;23.88;23.47
59063;BME280;44851;45.648;9.004;2023-03-25T10:59:38;98565.94;;;23.78;21.63
59063;BME280;44851;45.648;9.004;2023-03-25T11:02:17;98562.66;;;23.99;20.32
59063;BME280;44851;45.648;9.004;2023-03-25T11:04:45;98555.16;;;24.25;19.68
59063;BME280;44851;45.648;9.004;2023-03-25T11:07:35;98551.22;;;23.99;18.77
59063;BME280;44851;45.648;9.004;2023-03-25T11:10:18;98555.38;;;23.95;17.70
59063;BME280;44851;45.648;9.004;2023-03-25T11:12:44;98562.91;;;24.26;20.07
59063;BME280;44851;45.648;9.004;2023-03-25T11:15:21;98561.13;;;24.32;19.25
59063;BME280;44851;45.648;9.004;2023-03-25T11:17:58;98561.00;;;24.10;18.69
59063;BME280;44851;45.648;9.004;2023-03-25T11:20:30;98554.34;;;24.70;21.61
59063;BME280;44851;45.648;9.004;2023-03-25T11:23:13;98561.31;;;24.42;20.19
59063;BME280;44851;45.648;9.004;2023-03-25T11:25:41;98554.34;;;23.96;20.35
59063;BME280;44851;45.648;9.004;2023-03-25T11:31:06;98555.81;;;24.32;22.76
59063;BME280;44851;45.648;9.004;2023-03-25T11:33:33;98558.41;;;24.44;20.25
59063;BME280;44851;45.648;9.004;2023-03-25T11:36:21;98551.00;;;24.46;21.05
59063;BME280;44851;45.648;9.004;2023-03-25T11:39:00;98558.13;;;24.57;20.84
59063;BME280;44851;45.648;9.004;2023-03-25T11:41:30;98552.25;;;24.26;19.07
59063;BME280;44851;45.648;9.004;2023-03-25T11:43:58;98550.13;;;24.28;20.80
59063;BME280;44851;45.648;9.004;2023-03-25T11:46:23;98550.00;;;24.35;20.62
59063;BME280;44851;45.648;9.004;2023-03-25T11:48:49;98546.09;;;24.71;23.00
59063;BME280;44851;45.648;9.004;2023-03-25T11:51:33;98550.41;;;24.44;23.03
59063;BME280;44851;45.648;9.004;2023-03-25T11:54:02;98545.00;;;24.38;22.96
59063;BME280;44851;45.648;9.004;2023-03-25T11:56:38;98540.94;;;24.64;23.38
59063;BME280;44851;45.648;9.004;2023-03-25T11:59:38;98551.88;;;24.51;23.73
59063;BME280;44851;45.648;9.004;2023-03-25T12:02:25;98551.34;;;24.66;25.07
59063;BME280;44851;45.648;9.004;2023-03-25T12:05:23;98544.31;;;24.60;23.68
59063;BME280;44851;45.648;9.004;2023-03-25T12:07:51;98544.78;;;23.71;24.01
59063;BME280;44851;45.648;9.004;2023-03-25T12:15:50;98523.03;;;23.74;24.29
59063;BME280;44851;45.648;9.004;2023-03-25T12:18:30;98521.72;;;24.17;24.19
59063;BME280;44851;45.648;9.004;2023-03-25T12:21:14;98519.41;;;23.40;24.82
59063;BME280;44851;45.648;9.004;2023-03-25T12:29:11;98514.28;;;23.62;28.27
59063;BME280;44851;45.648;9.004;2023-03-25T12:42:44;98474.34;;;23.33;24.96
59063;BME280;44851;45.648;9.004;2023-03-25T12:45:23;98465.06;;;23.36;26.36
59063;BME280;44851;45.648;9.004;2023-03-25T12:58:34;98463.28;;;23.94;22.55
59063;BME280;44851;45.648;9.004;2023-03-25T13:06:59;98450.88;;;24.16;24.83
59063;BME280;44851;45.648;9.004;2023-03-25T13:09:43;98454.84;;;24.64;25.05
59063;BME280;44851;45.648;9.004;2023-03-25T13:15:15;98441.88;;;23.60;23.23
59063;BME280;44851;45.648;9.004;2023-03-25T13:17:47;98443.84;;;24.27;24.39
59063;BME280;44851;45.648;9.004;2023-03-25T13:20:16;98433.69;;;24.40;23.20
59063;BME280;44851;45.648;9.004;2023-03-25T13:22:48;98436.50;;;24.51;22.61
59063;BME280;44851;45.648;9.004;2023-03-25T13:25:25;98431.19;;;24.51;22.10
59063;BME280;44851;45.648;9.004;2023-03-25T13:27:54;98431.34;;;24.44;23.04
59063;BME280;44851;45.648;9.004;2023-03-25T13:30:38;98424.16;;;24.11;24.06
59063;BME280;44851;45.648;9.004;2023-03-25T13:33:10;98423.78;;;24.19;23.05
59063;BME280;44851;45.648;9.004;2023-03-25T13:35:43;98416.06;;;24.39;22.43
59063;BME280;44851;45.648;9.004;2023-03-25T13:38:20;98412.94;;;24.43;22.65
59063;BME280;44851;45.648;9.004;2023-03-25T13:41:08;98410.81;;;24.78;22.44
59063;BME280;44851;45.648;9.004;2023-03-25T13:46:12;98408.84;;;24.90;23.97
59063;BME280;44851;45.648;9.004;2023-03-25T13:48:57;98417.63;;;24.69;21.77
59063;BME280;44851;45.648;9.004;2023-03-25T13:51:26;98413.75;;;24.60;23.10
59063;BME280;44851;45.648;9.004;2023-03-25T13:54:08;98419.03;;;24.77;23.84
59063;BME280;44851;45.648;9.004;2023-03-25T14:12:55;98393.03;;;23.66;22.48
59063;BME280;44851;45.648;9.004;2023-03-25T14:15:34;98389.00;;;23.80;21.42
59063;BME280;44851;45.648;9.004;2023-03-25T14:18:01;98394.50;;;23.91;22.43
59063;BME280;44851;45.648;9.004;2023-03-25T14:20:37;98393.25;;;24.10;23.38
59063;BME280;44851;45.648;9.004;2023-03-25T14:23:06;98383.59;;;24.04;21.98
59063;BME280;44851;45.648;9.004;2023-03-25T14:25:40;98391.47;;;23.99;22.00
59063;BME280;44851;45.648;9.004;2023-03-25T14:28:11;98388.41;;;24.07;22.68
59063;BME280;44851;45.648;9.004;2023-03-25T14:30:40;98387.31;;;24.03;20.56
59063;BME280;44851;45.648;9.004;2023-03-25T14:33:10;98380.75;;;23.94;21.09
59063;BME280;44851;45.648;9.004;2023-03-25T14:35:44;98380.63;;;23.88;21.76
59063;BME280;44851;45.648;9.004;2023-03-25T14:38:18;98380.84;;;23.70;20.83
59063;BME280;44851;45.648;9.004;2023-03-25T14:40:46;98381.09;;;23.69;20.89
59063;BME280;44851;45.648;9.004;2023-03-25T14:56:31;98371.22;;;23.52;20.95
59063;BME280;44851;45.648;9.004;2023-03-25T14:59:05;98364.53;;;23.50;20.63
59063;BME280;44851;45.648;9.004;2023-03-25T15:01:36;98365.88;;;23.35;21.42
59063;BME280;44851;45.648;9.004;2023-03-25T15:04:34;98363.03;;;23.14;20.54
59063;BME280;44851;45.648;9.004;2023-03-25T15:07:02;98369.78;;;22.93;21.56
59063;BME280;44851;45.648;9.004;2023-03-25T15:09:48;98367.50;;;22.73;22.00
59063;BME280;44851;45.648;9.004;2023-03-25T15:12:15;98361.16;;;22.86;22.44
59063;BME280;44851;45.648;9.004;2023-03-25T15:14:43;98362.31;;;22.66;21.99
59063;BME280;44851;45.648;9.004;2023-03-25T15:17:37;98361.88;;;22.57;21.56
59063;BME280;44851;45.648;9.004;2023-03-25T15:22:30;98360.34;;;22.26;22.20
59063;BME280;44851;45.648;9.004;2023-03-25T15:24:58;98356.06;;;22.25;22.66
59063;BME280;44851;45.648;9.004;2023-03-25T15:27:44;98356.88;;;22.14;21.50
59063;BME280;44851;45.648;9.004;2023-03-25T15:38:43;98357.03;;;21.77;20.53
59063;BME280;44851;45.648;9.004;2023-03-25T15:47:02;98354.69;;;21.58;20.58
59063;BME280;44851;45.648;9.004;2023-03-25T15:49:44;98362.63;;;21.09;20.07
59063;BME280;44851;45.648;9.004;2023-03-25T15:55:21;98364.09;;;21.23;20.58
59063;BME280;44851;45.648;9.004;2023-03-25T15:57:51;98362.19;;;21.12;21.05